createdAt,value
2019-02-04T00:02:06.226Z,65.90
2019-02-04T00:04:36.842Z,65.90
2019-02-04T00:07:06.835Z,65.90
2019-02-04T00:09:37.106Z,66.00
2019-02-04T00:12:08.379Z,66.10
2019-02-04T00:14:38.564Z,65.90
2019-02-04T00:17:08.834Z,65.90
2019-02-04T00:19:38.856Z,65.90
2019-02-04T00:22:08.879Z,66.00
2019-02-04T00:24:38.867Z,65.90
2019-02-04T00:27:08.906Z,65.80
2019-02-04T00:29:38.890Z,65.90
2019-02-04T00:32:09.192Z,65.90
2019-02-04T00:34:39.764Z,66.10
2019-02-04T00:37:09.775Z,66.00
2019-02-04T00:39:39.761Z,65.90
2019-02-04T00:42:10.111Z,66.00
2019-02-04T00:44:40.109Z,65.90
2019-02-04T00:47:10.334Z,66.00
2019-02-04T00:49:41.097Z,66.00
2019-02-04T00:52:11.450Z,65.90
2019-02-04T00:54:41.446Z,66.60
2019-02-04T00:57:11.474Z,65.90
2019-02-04T00:59:41.480Z,65.90
2019-02-04T01:02:12.043Z,65.80
2019-02-04T01:04:42.200Z,65.80
2019-02-04T01:07:12.271Z,65.70
2019-02-04T01:09:42.564Z,65.80
2019-02-04T01:12:12.608Z,65.70
2019-02-04T01:14:42.675Z,65.70
2019-02-04T01:17:13.552Z,65.40
2019-02-04T01:19:43.541Z,65.40
2019-02-04T01:22:13.764Z,64.90
2019-02-04T01:24:43.887Z,65.40
2019-02-04T01:27:14.139Z,65.30
2019-02-04T01:29:44.612Z,65.40
2019-02-04T01:32:15.874Z,65.40
2019-02-04T01:34:45.893Z,65.00
2019-02-04T01:37:16.016Z,65.30
2019-02-04T01:39:47.539Z,65.00
2019-02-04T01:42:17.568Z,65.00
2019-02-04T01:44:47.827Z,64.90
2019-02-04T01:47:17.818Z,64.70
2019-02-04T01:49:48.016Z,64.70
2019-02-04T01:52:18.288Z,64.70
2019-02-04T01:54:48.292Z,64.50
2019-02-04T01:57:18.275Z,64.50
2019-02-04T01:59:48.266Z,64.50
2019-02-04T02:02:18.313Z,64.40
2019-02-04T02:04:48.588Z,64.60
2019-02-04T02:07:18.622Z,64.50
2019-02-04T02:09:49.217Z,64.50
2019-02-04T02:12:19.291Z,64.70
2019-02-04T02:14:49.276Z,64.60
2019-02-04T02:17:26.076Z,64.60
2019-02-04T02:19:50.996Z,64.80
2019-02-04T02:22:21.790Z,64.70
2019-02-04T02:24:51.777Z,64.70
2019-02-04T02:27:21.996Z,64.70
2019-02-04T02:29:52.022Z,64.70
2019-02-04T02:32:22.029Z,64.90
2019-02-04T02:34:52.090Z,64.60
2019-02-04T02:37:22.240Z,64.60
2019-02-04T02:39:52.236Z,64.50
2019-02-04T02:42:22.250Z,64.60
2019-02-04T02:44:52.398Z,64.60
2019-02-04T02:47:22.466Z,64.50
2019-02-04T02:49:53.053Z,64.60
2019-02-04T02:52:23.057Z,64.70
2019-02-04T02:54:53.340Z,64.60
2019-02-04T02:57:23.423Z,64.70
2019-02-04T02:59:53.429Z,64.80
2019-02-04T03:02:23.459Z,64.70
2019-02-04T03:04:53.524Z,64.80
2019-02-04T03:07:23.534Z,64.70
2019-02-04T03:09:54.180Z,64.70
2019-02-04T03:12:24.111Z,64.80
2019-02-04T03:14:54.128Z,64.80
2019-02-04T03:17:24.508Z,64.90
2019-02-04T03:19:54.542Z,64.90
2019-02-04T03:22:24.541Z,64.90
2019-02-04T03:24:54.563Z,64.90
2019-02-04T03:27:24.885Z,64.90
2019-02-04T03:29:55.174Z,64.90
2019-02-04T03:32:25.348Z,64.90
2019-02-04T03:34:55.358Z,64.90
2019-02-04T03:37:25.362Z,64.90
2019-02-04T03:39:55.387Z,64.90
2019-02-04T03:42:25.405Z,64.90
2019-02-04T03:44:55.681Z,64.90
2019-02-04T03:47:25.877Z,65.00
2019-02-04T03:49:55.907Z,64.70
2019-02-04T03:52:26.220Z,64.90
2019-02-04T03:54:56.637Z,64.90
2019-02-04T03:57:26.912Z,64.90
2019-02-04T03:59:57.174Z,64.90
2019-02-04T04:02:28.605Z,64.90
2019-02-04T04:04:58.625Z,64.90
2019-02-04T04:07:28.634Z,64.90
2019-02-04T04:09:59.126Z,65.00
2019-02-04T04:12:29.435Z,65.00
2019-02-04T04:14:59.531Z,65.00
2019-02-04T04:17:29.564Z,64.90
2019-02-04T04:19:59.593Z,65.00
2019-02-04T04:22:29.574Z,65.00
2019-02-04T04:25:00.017Z,65.10
2019-02-04T04:27:30.087Z,65.00
2019-02-04T04:30:00.309Z,64.90
2019-02-04T04:32:30.381Z,64.90
2019-02-04T04:35:00.390Z,65.00
2019-02-04T04:37:31.241Z,65.00
2019-02-04T04:40:01.652Z,65.00
2019-02-04T04:42:31.650Z,65.00
2019-02-04T04:45:01.870Z,64.90
2019-02-04T04:47:33.061Z,65.00
2019-02-04T04:50:03.359Z,65.00
2019-02-04T04:52:33.345Z,65.00
2019-02-04T04:55:03.393Z,65.10
2019-02-04T04:57:33.395Z,65.10
2019-02-04T05:00:05.129Z,65.10
2019-02-04T05:02:35.133Z,65.30
2019-02-04T05:05:07.089Z,65.10
2019-02-04T05:07:37.128Z,65.10
2019-02-04T05:10:08.635Z,65.10
2019-02-04T05:12:38.620Z,65.20
2019-02-04T05:15:10.170Z,65.20
2019-02-04T05:17:40.637Z,65.20
2019-02-04T05:20:12.031Z,65.10
2019-02-04T05:22:42.117Z,65.30
2019-02-04T05:25:12.581Z,65.20
2019-02-04T05:27:42.687Z,65.20
2019-02-04T05:30:15.205Z,65.30
2019-02-04T05:32:45.580Z,65.30
2019-02-04T05:35:16.549Z,65.30
2019-02-04T05:37:46.634Z,65.30
2019-02-04T05:40:17.436Z,65.40
2019-02-04T05:42:48.121Z,65.30
2019-02-04T05:45:19.519Z,65.30
2019-02-04T05:47:49.524Z,65.30
2019-02-04T05:50:20.515Z,65.40
2019-02-04T05:52:50.589Z,65.30
2019-02-04T05:55:24.066Z,65.30
2019-02-04T05:57:54.135Z,65.40
2019-02-04T06:00:34.435Z,65.40
2019-02-04T06:03:04.534Z,65.40
2019-02-04T06:05:34.579Z,65.40
2019-02-04T06:08:04.953Z,65.40
2019-02-04T06:10:35.005Z,65.40
2019-02-04T06:13:05.080Z,65.40
2019-02-04T06:15:35.381Z,65.50
2019-02-04T06:18:05.771Z,65.40
2019-02-04T06:20:36.162Z,65.50
2019-02-04T06:23:06.202Z,65.60
2019-02-04T06:25:36.225Z,65.60
2019-02-04T06:28:06.205Z,65.70
2019-02-04T06:30:36.584Z,65.60
2019-02-04T06:33:06.573Z,65.50
2019-02-04T06:35:36.635Z,65.70
2019-02-04T06:38:06.642Z,65.70
2019-02-04T06:40:36.659Z,65.60
2019-02-04T06:43:08.948Z,65.70
2019-02-04T06:45:46.059Z,65.70
2019-02-04T06:48:16.632Z,65.60
2019-02-04T06:50:46.737Z,65.80
2019-02-04T06:53:16.738Z,65.80
2019-02-04T06:55:46.749Z,65.90
2019-02-04T06:58:20.733Z,65.90
2019-02-04T07:00:50.783Z,65.90
2019-02-04T07:03:21.128Z,65.80
2019-02-04T07:05:51.147Z,65.90
2019-02-04T07:08:21.315Z,65.80
2019-02-04T07:10:51.472Z,66.10
2019-02-04T07:13:22.279Z,66.00
2019-02-04T07:15:52.300Z,65.90
2019-02-04T07:18:32.392Z,65.90
2019-02-04T07:21:13.671Z,66.00
2019-02-04T07:23:43.756Z,66.00
2019-02-04T07:26:14.197Z,66.00
2019-02-04T07:28:44.211Z,66.10
2019-02-04T07:31:14.380Z,66.10
2019-02-04T07:33:44.378Z,66.10
2019-02-04T07:36:14.378Z,66.20
2019-02-04T07:38:45.211Z,66.10
2019-02-04T07:41:15.292Z,66.10
2019-02-04T07:43:45.297Z,66.20
2019-02-04T07:46:15.394Z,66.10
2019-02-04T07:48:45.396Z,66.10
2019-02-04T07:51:16.090Z,66.10
2019-02-04T07:53:46.082Z,66.10
2019-02-04T07:56:16.453Z,66.20
2019-02-04T07:58:46.503Z,66.30
2019-02-04T08:01:16.600Z,66.30
2019-02-04T08:03:46.686Z,66.40
2019-02-04T08:06:16.750Z,66.40
2019-02-04T08:08:46.896Z,66.30
2019-02-04T08:11:16.920Z,66.30
2019-02-04T08:13:47.337Z,66.30
2019-02-04T08:16:18.020Z,66.30
2019-02-04T08:19:10.945Z,66.20
2019-02-04T08:21:41.025Z,66.10
2019-02-04T08:24:11.058Z,66.00
2019-02-04T08:26:49.431Z,65.90
2019-02-04T08:29:16.892Z,65.90
2019-02-04T08:31:46.954Z,66.00
2019-02-04T08:34:16.955Z,66.70
2019-02-04T08:36:47.040Z,65.90
2019-02-04T08:39:17.018Z,66.00
2019-02-04T08:41:47.775Z,66.10
2019-02-04T08:44:27.386Z,66.30
2019-02-04T08:46:56.489Z,66.40
2019-02-04T08:49:37.329Z,66.30
2019-02-04T08:52:07.902Z,66.30
2019-02-04T08:54:37.982Z,66.20
2019-02-04T08:57:08.463Z,66.90
2019-02-04T08:59:38.447Z,66.90
2019-02-04T09:02:08.437Z,66.30
2019-02-04T09:04:38.445Z,66.40
2019-02-04T09:07:08.724Z,66.40
2019-02-04T09:09:39.135Z,66.40
2019-02-04T09:12:09.625Z,66.20
2019-02-04T09:14:40.949Z,66.10
2019-02-04T09:17:10.941Z,66.10
2019-02-04T09:19:41.054Z,66.30
2019-02-04T09:22:11.110Z,66.30
2019-02-04T09:24:41.510Z,66.40
2019-02-04T09:27:11.516Z,66.30
2019-02-04T09:29:41.720Z,66.30
2019-02-04T09:32:11.809Z,66.20
2019-02-04T09:34:41.835Z,66.10
2019-02-04T09:37:11.827Z,65.90
2019-02-04T09:39:41.883Z,65.50
2019-02-04T09:42:11.941Z,65.40
2019-02-04T09:44:41.942Z,65.40
2019-02-04T09:47:11.941Z,65.70
2019-02-04T09:49:42.597Z,65.80
2019-02-04T09:52:12.676Z,66.00
2019-02-04T09:54:42.946Z,66.10
2019-02-04T09:57:13.467Z,66.30
2019-02-04T09:59:43.543Z,66.40
2019-02-04T10:02:13.885Z,66.60
2019-02-04T10:04:43.931Z,67.10
2019-02-04T10:07:14.034Z,67.10
2019-02-04T10:09:44.190Z,66.60
2019-02-04T10:12:14.231Z,66.70
2019-02-04T10:17:49.822Z,65.80
2019-02-04T10:20:20.147Z,65.90
2019-02-04T10:22:50.575Z,65.40
2019-02-04T10:25:22.946Z,65.50
2019-02-04T10:27:53.320Z,65.50
2019-02-04T10:30:23.666Z,65.70
2019-02-04T10:32:54.022Z,65.50
2019-02-04T10:35:25.803Z,65.00
2019-02-04T10:37:55.979Z,65.00
2019-02-04T10:40:26.834Z,65.30
2019-02-04T10:42:56.909Z,65.50
2019-02-04T10:45:27.245Z,65.60
2019-02-04T10:47:57.345Z,65.80
2019-02-04T10:50:45.204Z,65.40
2019-02-04T10:53:06.258Z,65.20
2019-02-04T10:55:36.317Z,64.40
2019-02-04T10:58:08.556Z,64.50
2019-02-04T11:00:40.010Z,63.90
2019-02-04T11:03:10.106Z,64.20
2019-02-04T11:05:40.424Z,63.90
2019-02-04T11:08:11.526Z,64.10
2019-02-04T11:10:42.652Z,64.50
2019-02-04T11:13:14.844Z,64.60
2019-02-04T11:15:46.440Z,64.80
2019-02-04T11:18:16.605Z,64.80
2019-02-04T11:20:57.835Z,64.30
2019-02-04T11:23:19.163Z,63.90
2019-02-04T11:25:49.682Z,63.90
2019-02-04T11:28:20.553Z,63.60
2019-02-04T11:31:02.415Z,63.40
2019-02-04T11:33:32.496Z,62.50
2019-02-04T11:36:02.863Z,63.00
2019-02-04T11:38:33.588Z,63.50
2019-02-04T11:41:04.037Z,63.80
2019-02-04T11:43:34.059Z,64.10
2019-02-04T11:46:04.279Z,63.40
2019-02-04T11:48:34.333Z,63.30
2019-02-04T11:51:09.711Z,63.80
2019-02-04T11:53:38.046Z,64.30
2019-02-04T11:56:08.057Z,64.60
2019-02-04T11:58:38.398Z,63.50
2019-02-04T12:01:08.488Z,62.90
2019-02-04T12:03:38.870Z,62.50
2019-02-04T12:06:09.354Z,61.90
2019-02-04T12:08:39.476Z,61.80
2019-02-04T12:11:18.081Z,62.30
2019-02-04T12:13:48.168Z,62.10
2019-02-04T12:16:19.546Z,60.70
2019-02-04T12:18:49.962Z,60.90
2019-02-04T12:21:21.810Z,61.00
2019-02-04T12:23:52.239Z,61.50
2019-02-04T12:26:22.230Z,62.20
2019-02-04T12:28:52.255Z,62.10
2019-02-04T12:31:22.942Z,62.70
2019-02-04T12:33:53.478Z,62.10
2019-02-04T12:36:23.478Z,61.90
2019-02-04T12:38:53.854Z,61.70
2019-02-04T12:41:24.372Z,61.50
2019-02-04T12:43:54.414Z,61.30
2019-02-04T12:46:25.683Z,60.80
2019-02-04T12:48:55.698Z,60.60
2019-02-04T12:51:33.389Z,61.20
2019-02-04T12:53:57.542Z,61.20
2019-02-04T12:56:27.556Z,61.20
2019-02-04T12:58:58.068Z,60.70
2019-02-04T13:01:28.766Z,60.20
2019-02-04T13:03:58.805Z,60.20
2019-02-04T13:06:28.802Z,60.80
2019-02-04T13:08:58.825Z,60.80
2019-02-04T13:11:29.509Z,61.30
2019-02-04T13:13:59.909Z,61.60
2019-02-04T13:16:30.115Z,62.20
2019-02-04T13:19:00.459Z,62.60
2019-02-04T13:21:30.482Z,62.40
2019-02-04T13:24:00.897Z,62.50
2019-02-04T13:26:31.223Z,62.70
2019-02-04T13:29:02.037Z,61.70
2019-02-04T13:31:32.154Z,62.10
2019-02-04T13:34:02.700Z,62.10
2019-02-04T13:36:32.843Z,62.40
2019-02-04T13:39:04.009Z,62.40
2019-02-04T13:41:35.836Z,62.50
2019-02-04T13:44:06.481Z,61.00
2019-02-04T13:46:36.514Z,61.40
2019-02-04T13:49:07.487Z,60.70
2019-02-04T13:51:38.087Z,61.80
2019-02-04T13:54:08.203Z,62.10
2019-02-04T13:56:38.314Z,62.20
2019-02-04T13:59:08.365Z,62.50
2019-02-04T14:01:38.406Z,61.10
2019-02-04T14:04:08.547Z,61.10
2019-02-04T14:06:38.587Z,61.60
2019-02-04T14:09:17.707Z,61.20
2019-02-04T14:11:48.077Z,60.80
2019-02-04T14:14:18.103Z,61.40
2019-02-04T14:16:48.467Z,60.90
2019-02-04T14:19:18.989Z,61.30
2019-02-04T14:21:49.051Z,61.70
2019-02-04T14:24:19.145Z,61.80
2019-02-04T14:26:49.325Z,60.60
2019-02-04T14:29:19.654Z,60.70
2019-02-04T14:31:49.728Z,60.30
2019-02-04T14:34:19.910Z,60.80
2019-02-04T14:36:50.695Z,61.30
2019-02-04T14:39:20.719Z,61.70
2019-02-04T14:41:50.929Z,62.10
2019-02-04T14:45:02.125Z,62.70
2019-02-04T14:47:37.498Z,61.50
2019-02-04T14:51:00.737Z,62.10
2019-02-04T14:54:13.063Z,62.10
2019-02-04T14:57:11.978Z,61.40
2019-02-04T14:59:49.991Z,61.70
2019-02-04T15:02:51.446Z,61.40
2019-02-04T15:05:46.530Z,61.40
2019-02-04T15:08:42.562Z,61.60
2019-02-04T15:11:24.170Z,61.90
2019-02-04T15:14:16.295Z,60.90
2019-02-04T15:16:53.154Z,60.50
2019-02-04T15:20:02.541Z,60.70
2019-02-04T15:23:27.900Z,61.00
2019-02-04T15:26:33.257Z,60.80
2019-02-04T15:29:14.649Z,61.00
2019-02-04T15:32:15.012Z,61.30
2019-02-04T15:35:09.222Z,61.70
2019-02-04T15:38:10.642Z,62.00
2019-02-04T15:40:56.396Z,62.30
2019-02-04T15:44:09.410Z,62.30
2019-02-04T15:47:03.343Z,62.00
2019-02-04T15:50:05.853Z,62.20
2019-02-04T15:52:45.088Z,62.20
2019-02-04T15:55:11.530Z,61.90
2019-02-04T15:57:41.556Z,62.20
2019-02-04T16:00:12.793Z,62.10
2019-02-04T16:02:42.894Z,62.10
2019-02-04T16:05:13.618Z,62.10
2019-02-04T16:07:44.795Z,62.10
2019-02-04T16:10:16.878Z,62.10
2019-02-04T16:12:48.113Z,62.00
2019-02-04T16:15:18.523Z,61.80
2019-02-04T16:17:48.523Z,61.80
2019-02-04T16:20:22.049Z,61.90
2019-02-04T16:22:58.449Z,61.80
2019-02-04T16:25:25.518Z,61.80
2019-02-04T16:27:55.567Z,61.60
2019-02-04T16:30:26.664Z,61.40
2019-02-04T16:32:58.160Z,61.80
2019-02-04T16:35:28.600Z,61.60
2019-02-04T16:37:58.654Z,61.50
2019-02-04T16:40:29.132Z,61.60
2019-02-04T16:42:59.287Z,61.60
2019-02-04T16:45:29.860Z,61.50
2019-02-04T16:48:00.196Z,61.50
2019-02-04T16:50:30.838Z,61.40
2019-02-04T16:53:10.204Z,61.20
2019-02-04T16:55:32.657Z,61.50
2019-02-04T16:58:02.714Z,61.50
2019-02-04T17:00:33.110Z,61.50
2019-02-04T17:03:03.234Z,61.40
2019-02-04T17:05:33.303Z,61.50
2019-02-04T17:08:03.721Z,61.70
2019-02-04T17:10:33.833Z,61.60
2019-02-04T17:13:04.733Z,61.50
2019-02-04T17:15:34.751Z,61.30
2019-02-04T17:18:06.238Z,61.40
2019-02-04T17:20:37.205Z,61.50
2019-02-04T17:23:07.354Z,61.50
2019-02-04T17:25:37.731Z,61.50
2019-02-04T17:28:08.773Z,61.60
2019-02-04T17:30:38.968Z,61.50
2019-02-04T17:33:09.062Z,61.40
2019-02-04T17:35:39.173Z,61.40
2019-02-04T17:38:09.297Z,61.10
2019-02-04T17:40:39.935Z,61.30
2019-02-04T17:43:10.010Z,61.20
2019-02-04T17:45:40.020Z,61.00
2019-02-04T17:48:10.136Z,61.10
2019-02-04T17:50:40.145Z,61.00
2019-02-04T17:53:10.525Z,61.00
2019-02-04T17:55:40.578Z,61.00
2019-02-04T17:58:10.700Z,60.90
2019-02-04T18:00:45.997Z,60.90
2019-02-04T18:03:16.011Z,60.90
2019-02-04T18:05:46.694Z,60.80
2019-02-04T18:08:17.294Z,61.00
2019-02-04T18:10:47.949Z,60.90
2019-02-04T18:13:17.972Z,61.00
2019-02-04T18:15:48.390Z,60.90
2019-02-04T18:18:18.399Z,60.90
2019-02-04T18:20:49.304Z,60.90
2019-02-04T18:23:19.317Z,60.80
2019-02-04T18:25:49.325Z,60.90
2019-02-04T18:28:19.361Z,60.70
2019-02-04T18:30:49.722Z,60.50
2019-02-04T18:33:20.163Z,60.40
2019-02-04T18:35:50.322Z,60.30
2019-02-04T18:38:20.383Z,60.00
2019-02-04T18:40:50.783Z,60.00
2019-02-04T18:43:21.033Z,60.10
2019-02-04T18:45:51.143Z,60.00
2019-02-04T18:48:21.282Z,60.00
2019-02-04T18:50:51.300Z,59.90
2019-02-04T18:53:21.894Z,59.90
2019-02-04T18:55:51.959Z,59.90
2019-02-04T18:58:22.566Z,59.70
2019-02-04T19:00:52.658Z,59.60
2019-02-04T19:03:23.220Z,59.50
2019-02-04T19:05:53.224Z,59.50
2019-02-04T19:08:23.546Z,59.60
2019-02-04T19:10:53.926Z,59.60
2019-02-04T19:13:35.825Z,59.50
2019-02-04T19:15:59.967Z,59.30
2019-02-04T19:18:42.290Z,59.40
2019-02-04T19:21:13.483Z,58.60
2019-02-04T19:23:43.898Z,59.40
2019-02-04T19:26:13.986Z,59.30
2019-02-04T19:28:44.061Z,59.40
2019-02-04T19:31:20.498Z,59.50
2019-02-04T19:33:50.520Z,59.30
2019-02-04T19:36:20.840Z,59.30
2019-02-04T19:38:53.741Z,59.20
2019-02-04T19:41:23.760Z,59.00
2019-02-04T19:43:53.875Z,58.90
2019-02-04T19:46:23.909Z,58.90
2019-02-04T19:48:54.552Z,59.00
2019-02-04T19:51:24.587Z,58.90
2019-02-04T19:53:54.623Z,58.80
2019-02-04T19:56:25.512Z,58.70
2019-02-04T19:58:55.534Z,58.60
2019-02-04T20:01:25.856Z,58.60
2019-02-04T20:03:56.674Z,58.80
2019-02-04T20:06:27.121Z,58.50
2019-02-04T20:08:57.327Z,58.50
2019-02-04T20:11:27.743Z,58.30
2019-02-04T20:13:57.732Z,58.30
2019-02-04T20:16:28.474Z,58.10
2019-02-04T20:18:58.476Z,58.10
2019-02-04T20:21:28.502Z,58.30
2019-02-04T20:23:58.514Z,58.30
2019-02-04T20:26:28.618Z,58.20
2019-02-04T20:28:58.975Z,58.30
2019-02-04T20:31:29.012Z,58.10
2019-02-04T20:33:59.354Z,58.20
2019-02-04T20:36:30.394Z,58.10
2019-02-04T20:39:00.567Z,58.30
2019-02-04T20:41:32.216Z,58.90
2019-02-04T20:44:02.289Z,58.40
2019-02-04T20:46:34.103Z,58.50
2019-02-04T20:49:04.510Z,58.40
2019-02-04T20:51:34.993Z,58.40
2019-02-04T20:54:05.850Z,58.40
2019-02-04T20:56:35.877Z,58.30
2019-02-04T20:59:05.984Z,58.00
2019-02-04T21:01:38.091Z,58.10
2019-02-04T21:04:08.879Z,58.30
2019-02-04T21:06:38.893Z,58.80
2019-02-04T21:09:10.038Z,59.00
2019-02-04T21:11:40.072Z,59.20
2019-02-04T21:14:10.145Z,59.40
2019-02-04T21:16:40.164Z,59.50
2019-02-04T21:19:10.839Z,59.40
2019-02-04T21:21:41.130Z,59.40
2019-02-04T21:24:11.230Z,59.10
2019-02-04T21:26:41.617Z,58.90
2019-02-04T21:29:13.417Z,58.70
2019-02-04T21:31:43.487Z,58.60
2019-02-04T21:34:13.885Z,58.60
2019-02-04T21:36:44.601Z,58.40
2019-02-04T21:39:14.639Z,58.40
2019-02-04T21:41:44.644Z,58.40
2019-02-04T21:44:14.800Z,58.50
2019-02-04T21:46:45.145Z,58.40
2019-02-04T21:49:15.177Z,58.50
2019-02-04T21:51:45.202Z,58.50
2019-02-04T21:54:16.047Z,58.50
2019-02-04T21:56:46.476Z,58.40
2019-02-04T21:59:16.513Z,58.20
2019-02-04T22:01:46.597Z,58.20
2019-02-04T22:04:16.632Z,58.00
2019-02-04T22:06:46.697Z,58.10
2019-02-04T22:09:17.013Z,57.90
2019-02-04T22:11:47.092Z,58.00
2019-02-04T22:14:17.723Z,58.00
2019-02-04T22:16:47.693Z,57.90
2019-02-04T22:19:18.142Z,57.80
2019-02-04T22:21:48.165Z,58.10
2019-02-04T22:24:18.886Z,58.40
2019-02-04T22:26:50.218Z,58.10
2019-02-04T22:29:20.616Z,58.70
2019-02-04T22:31:51.432Z,58.10
2019-02-04T22:34:21.886Z,58.10
2019-02-04T22:36:52.846Z,58.20
2019-02-04T22:39:22.836Z,58.10
2019-02-04T22:41:52.945Z,58.00
2019-02-04T22:44:23.021Z,58.10
2019-02-04T22:46:53.045Z,58.10
2019-02-04T22:49:23.362Z,58.10
2019-02-04T22:51:53.858Z,58.30
2019-02-04T22:54:24.215Z,58.40
2019-02-04T22:56:54.232Z,58.40
2019-02-04T22:59:24.245Z,58.60
2019-02-04T23:01:56.740Z,58.70
2019-02-04T23:04:27.289Z,58.80
2019-02-04T23:06:57.352Z,58.60
2019-02-04T23:09:27.407Z,58.80
2019-02-04T23:11:57.401Z,58.90
2019-02-04T23:14:27.418Z,59.10
2019-02-04T23:16:58.848Z,59.20
2019-02-04T23:19:28.822Z,59.30
2019-02-04T23:21:58.848Z,59.40
2019-02-04T23:24:28.844Z,59.30
2019-02-04T23:26:58.863Z,59.40
2019-02-04T23:29:28.958Z,59.30
2019-02-04T23:31:59.576Z,59.40
2019-02-04T23:34:29.566Z,59.60
2019-02-04T23:37:00.560Z,59.70
2019-02-04T23:39:30.838Z,59.90
2019-02-04T23:42:00.856Z,60.00
2019-02-04T23:44:31.526Z,60.00
2019-02-04T23:47:01.550Z,60.00
2019-02-04T23:49:31.540Z,60.10
2019-02-04T23:52:01.561Z,60.30
2019-02-04T23:54:31.654Z,60.40
2019-02-04T23:57:01.977Z,60.40
2019-02-04T23:59:32.271Z,60.30
